Flight Track Log - Related Links

Times and Time Zones

All times are in EST time to prevent confusion due to time zone crossing. See the ASQ4537 flight status page for this flight to view local times or setup timezone preferences in your user account.

Time Position Orientation Groundspeed Altitude Reporting Facility
EST Latitude Longitude Course Direction KTS MPH feet Rate Location/Type
12:16PM 34.9833 -89.9667 180° South 172 198 2,500  Level KMEM
12:17PM 34.9333 -89.9333 151° Southeast 256 295 4,000 1,750 Climbing KMEM
12:18PM 34.9333 -89.8333 90° East 296 341 6,000 2,064 Climbing KMEM
12:19PM 34.9844 -89.7575 51° Northeast 293 337 8,300 1,937 Climbing Memphis Center
12:20PM 35.3276 -89.3448 31° Northeast  Level Estimated
12:20PM 35.0658 -89.7272 17° North 301 346 10,100  Level Memphis Center
12:21PM 35.1528 -89.6956 17° North 316 364 11,200 878 Climbing Memphis Center
12:22PM 35.2500 -89.6597 17° North 353 406 11,900 1,024 Climbing Memphis Center
12:23PM 35.3536 -89.6217 17° North 377 434 13,300 1,597 Climbing Memphis Center
12:24PM 35.4536 -89.5847 17° North 374 430 15,200 1,645 Climbing Memphis Center
12:25PM 35.5536 -89.5483 16° North 371 427 16,700 1,210 Climbing Memphis Center
12:26PM 35.6544 -89.5094 17° North 374 430 17,700 823 Climbing Memphis Center
12:27PM 35.7628 -89.4308 30° Northeast 394 453 18,400 823 Climbing Memphis Center
12:28PM 35.8594 -89.3592 31° Northeast 404 465 19,400 1,016 Climbing Memphis Center
12:29PM 35.9586 -89.2847 31° Northeast 414 476 20,500 1,016 Climbing Memphis Center
12:30PM 36.0586 -89.2089 32° Northeast 422 486 21,500 976 Climbing Memphis Center
12:31PM 36.1611 -89.1317 31° Northeast 431 496 22,500 1,122 Climbing Memphis Center
12:32PM 36.2844 -89.0381 31° Northeast 437 503 23,800 1,113 Climbing Memphis Center
12:33PM 36.3881 -88.9600 31° Northeast 440 506 24,800 1,016 Climbing Memphis Center
12:34PM 36.4914 -88.8811 32° Northeast 440 506 25,900 1,161 Climbing Memphis Center
12:35PM 36.5933 -88.8047 31° Northeast 435 501 27,200 1,210 Climbing Memphis Center
12:36PM 36.6933 -88.7283 31° Northeast 426 490 28,400 1,306 Climbing Memphis Center
12:37PM 36.8131 -88.6361 32° Northeast 422 486 29,900 1,258 Climbing Memphis Center
12:38PM 36.9111 -88.5600 32° Northeast 418 481 31,000 1,016 Climbing Memphis Center
12:39PM 37.0092 -88.4842 32° Northeast 415 478 32,000 774 Climbing Memphis Center
12:40PM 37.1086 -88.4072 32° Northeast 418 481 32,600 634 Climbing Memphis Center
12:41PM 37.2106 -88.3275 32° Northeast 427 491 33,300 829 Climbing Memphis Center
12:43PM 37.3133 -88.2469 32° Northeast 434 499 34,300 823 Climbing Memphis Center
12:44PM 37.4150 -88.1686 31° Northeast 430 495 35,000 339 Climbing Memphis Center
12:45PM 37.5200 -88.0319 46° Northeast 461 531 35,000  Level Memphis Center
12:46PM 37.6044 -87.9017 51° Northeast 475 547 35,000  Level Memphis Center
12:47PM 37.6922 -87.7672 50° Northeast 489 563 35,000  Level Memphis Center
12:48PM 37.7822 -87.6242 51° Northeast 504 580 35,000  Level Memphis Center
12:49PM 37.8747 -87.4786 51° Northeast 519 597 35,000  Level Memphis Center
12:50PM 37.9953 -87.2883 51° Northeast 524 603 35,000  Level Indianapolis Center
12:51PM 38.0850 -87.1458 51° Northeast 521 600 35,000  Level Indianapolis Center
12:52PM 38.1897 -86.9778 52° Northeast 514 592 35,000  Level Indianapolis Center
12:53PM 38.2758 -86.8389 52° Northeast 512 589 35,000  Level Indianapolis Center
12:54PM 38.3642 -86.6964 52° Northeast 516 594 35,000  Level Indianapolis Center
12:55PM 38.4372 -86.5339 60° Northeast 527 606 35,000  Level Indianapolis Center
12:56PM 38.5111 -86.3714 60° Northeast 529 609 35,000  Level Indianapolis Center
12:57PM 38.5853 -86.2092 60° Northeast 527 606 35,000  Level Indianapolis Center
12:58PM 38.6589 -86.0472 60° Northeast 526 605 35,000  Level Indianapolis Center
12:59PM 38.7344 -85.8861 59° Northeast 517 595 35,000  Level Indianapolis Center
01:00PM 38.8211 -85.6989 59° Northeast 514 592 35,000  Level Indianapolis Center
01:01PM 38.8942 -85.5461 58° Northeast 510 587 35,000  Level Indianapolis Center
01:02PM 38.9686 -85.3875 59° Northeast 517 595 35,000  Level Indianapolis Center
01:03PM 39.0436 -85.2281 59° Northeast 516 594 35,000  Level Indianapolis Center
01:04PM 39.1175 -85.0756 58° Northeast 517 595 35,000  Level Indianapolis Center
01:05PM 39.2061 -84.9342 51° Northeast 511 588 35,000  Level Indianapolis Center
01:07PM 39.3139 -84.7669 50° Northeast 509 586 35,000  Level Indianapolis Center
01:08PM 39.4022 -84.6275 51° Northeast 507 583 35,000  Level Indianapolis Center
01:09PM 39.4911 -84.4892 50° Northeast 504 580 35,000  Level Indianapolis Center
01:10PM 39.5783 -84.3492 51° Northeast 503 579 35,000  Level Indianapolis Center
01:11PM 39.6647 -84.2111 51° Northeast 498 573 35,000  Level Indianapolis Center
01:12PM 39.7519 -84.0722 51° Northeast 497 572 35,000  Level Indianapolis Center
01:13PM 39.8542 -83.9067 51° Northeast 493 567 35,000  Level Indianapolis Center
01:14PM 39.9414 -83.7625 52° Northeast 500 575 35,000  Level Indianapolis Center
01:15PM 40.0347 -83.6125 51° Northeast 505 581 35,000  Level Indianapolis Center
01:16PM 40.1239 -83.4669 51° Northeast 509 586 35,000  Level Indianapolis Center
01:17PM 40.2136 -83.3208 51° Northeast 511 588 35,000  Level Indianapolis Center
01:18PM 40.3011 -83.1744 52° Northeast 507 583 35,000  Level Indianapolis Center
01:19PM 40.3892 -83.0286 52° Northeast 506 582 35,000  Level Indianapolis Center
01:20PM 40.4758 -82.8839 52° Northeast 502 578 35,000  Level Indianapolis Center
01:21PM 40.5625 -82.7389 52° Northeast 500 575 35,000  Level Indianapolis Center
01:22PM 40.6489 -82.5933 52° Northeast 500 575 35,000  Level Indianapolis Center
01:23PM 40.7469 -82.4272 52° Northeast 489 563 35,000  Level Indianapolis Center
01:24PM 40.8317 -82.2833 52° Northeast 492 566 35,000  Level Indianapolis Center
01:25PM 40.9164 -82.0994 59° Northeast 500 575 35,000  Level Cleveland Center
01:26PM 40.9644 -81.9203 70° East 513 590 35,000  Level Cleveland Center
01:27PM 41.0122 -81.7439 70° East 512 589 35,000  Level Cleveland Center
01:28PM 41.0675 -81.5392 70° East 509 586 35,000  Level Cleveland Center
01:29PM 41.1136 -81.3644 71° East 506 582 35,000  Level Cleveland Center
01:30PM 41.1592 -81.1881 71° East 505 581 35,000  Level Cleveland Center
01:31PM 41.2047 -81.0117 71° East 504 580 35,000  Level Cleveland Center
01:32PM 41.2514 -80.8358 71° East 504 580 35,000  Level Cleveland Center
01:34PM 41.2964 -80.6581 71° East 504 580 35,000  Level Cleveland Center
01:35PM 41.3494 -80.4508 71° East 505 581 35,000  Level Cleveland Center
01:36PM 41.3958 -80.2669 71° East 507 583 35,000  Level Cleveland Center
01:37PM 41.4403 -80.0911 71° East 503 579 35,000  Level Cleveland Center
01:38PM 41.4833 -79.9181 72° East 500 575 35,000  Level Cleveland Center
01:39PM 41.5267 -79.7431 72° East 499 574 35,000  Level Cleveland Center
01:40PM 41.5703 -79.5653 72° East 503 579 35,000  Level Cleveland Center
01:41PM 41.6236 -79.3497 72° East 508 585 35,000  Level Cleveland Center
01:42PM 41.6500 -79.1656 79° East 506 582 35,000  Level Cleveland Center
01:43PM 41.6311 -78.9761 98° East 512 589 35,000  Level Cleveland Center
01:44PM 41.6094 -78.7894 99° East 510 587 35,000 -194 Level Cleveland Center
01:45PM 41.5878 -78.6006 99° East 511 588 34,600 -677 Descending Cleveland Center
01:46PM 41.5656 -78.4117 99° East 511 588 33,600 -1,113 Descending Cleveland Center
01:47PM 41.5431 -78.2236 99° East 511 588 32,300 -1,258 Descending Cleveland Center
01:48PM 41.5158 -78.0036 99° East 502 578 31,000 -629 Descending Cleveland Center
01:49PM 41.4911 -77.8225 100° East 498 573 31,000  Level Cleveland Center
01:50PM 41.4656 -77.6381 100° East 503 579 31,000  Level Cleveland Center
01:51PM 41.4392 -77.4556 101° East 503 579 31,000  Level Cleveland Center
01:52PM 41.4058 -77.2325 101° East 512 589 31,000  Level New York Center
01:53PM 41.3783 -77.0472 101° East 512 589 31,000 -750 Level New York Center
01:54PM 41.3503 -76.8650 102° East 512 589 29,500 -1,650 Descending New York Center
01:55PM 41.3139 -76.6822 105° East 512 589 27,700 -2,150 Descending New York Center
01:56PM 41.2692 -76.5292 111° Southeast 500 575 25,200 -2,700 Descending New York Center
01:57PM 41.2253 -76.3597 109° East 495 570 22,300 2,900 Descending New York Center
01:58PM 41.1828 -76.1992 109° East 481 554 31,000 -2,150 Climbing New York Center
01:59PM 41.1417 -76.0497 110° East 449 517 18,000 -7,050 Descending New York Center
02:00PM 41.0989 -75.8867 109° East 429 494 16,900 -1,750 Descending New York Center
02:01PM 41.0589 -75.7461 111° Southeast 417 480 14,500 -1,950 Descending New York Center
02:02PM 41.0267 -75.6228 109° East 405 466 13,000 -1,100 Descending New York Center
02:03PM 40.9903 -75.4908 110° East 385 443 12,300 -1,200 Descending New York Center
02:04PM 40.9500 -75.3508 111° Southeast 379 436 10,600 -1,250 Descending New York Center
02:05PM 40.9222 -75.2556 111° Southeast 338 389 9,800 -1,041 Descending New York Center
02:06PM 40.8928 -75.1547 111° Southeast 303 349 8,500 -1,300 Descending New York Center
02:07PM 40.8739 -75.0439 103° East 281 323 7,200 -756 Descending New York Center
02:08PM 40.9003 -74.9439 71° East 263 303 7,000 -100 Descending New York Center
02:09PM 40.9242 -74.8575 70° East 281 323 7,000  Level New York Center
02:10PM 40.9550 -74.7522 69° East 281 323 7,000  Level New York Center
02:11PM 40.9619 -74.6619 84° East 276 318 7,000 -50 Level New York Center
02:12PM 40.9081 -74.5931 136° Southeast 244 281 6,900 -500 Descending New York Center
02:13PM 40.8414 -74.5947 181° South 238 274 6,000 -519 Descending New York Center
02:14PM 40.7833 -74.5833 172° South 263 303 6,000 -231 Level New York TRACON
02:15PM 40.7000 -74.5833 180° South 265 305 5,600 -500 Descending New York TRACON
02:16PM 40.6333 -74.5667 169° South 259 298 5,000 -300 Descending New York TRACON
02:17PM 40.5667 -74.5500 169° South 268 308 5,000 -50 Level New York TRACON
02:18PM 40.5000 -74.5000 150° Southeast 241 277 4,900 -632 Descending New York TRACON
02:19PM 40.4667 -74.4500 131° Southeast 228 262 3,800 -950 Descending New York TRACON
02:20PM 40.4667 -74.3667 90° East 215 247 3,000 -258 Descending New York TRACON
02:22PM 40.5333 -74.2667 49° Northeast 173 199 3,000 -167 Level New York TRACON
02:23PM 40.5833 -74.2333 27° Northeast 168 193 2,500 -750 Descending New York TRACON
02:24PM 40.6167 -74.2167 21° North 157 181 1,500 -895 Descending New York TRACON
02:25PM 40.6500 -74.2000 21° North 136 157 800 -778 Descending New York TRACON
02:27PM 40.6833 -74.1667 102° East  Level FlightAware Approximate
02:34PM 40.6925 -74.1687 102° East  Level Estimated
02:35PM 40.6925 -74.1687 102° East  Level Estimated

Login

Don't have an account? Register now (free) for customized features, flight alerts, and more!